createdAt,value
2019-04-21T00:00:29.741Z,78.70
2019-04-21T00:01:37.639Z,79.40
2019-04-21T00:02:44.119Z,79.70
2019-04-21T00:03:52.150Z,79.10
2019-04-21T00:05:06.211Z,79.10
2019-04-21T00:06:19.814Z,79.00
2019-04-21T00:07:29.065Z,79.20
2019-04-21T00:09:41.035Z,79.30
2019-04-21T00:13:52.610Z,79.90
2019-04-21T00:15:55.021Z,80.60
2019-04-21T00:17:05.314Z,80.40
2019-04-21T00:18:14.402Z,80.70
2019-04-21T00:19:29.961Z,80.90
2019-04-21T00:20:39.620Z,81.00
2019-04-21T00:21:45.828Z,81.20
2019-04-21T00:22:58.790Z,82.10
2019-04-21T00:24:23.953Z,81.20
2019-04-21T00:25:32.229Z,81.20
2019-04-21T00:26:40.208Z,81.20
2019-04-21T00:27:44.252Z,81.30
2019-04-21T00:29:01.748Z,81.70
2019-04-21T00:29:58.046Z,81.50
2019-04-21T00:31:06.538Z,81.60
2019-04-21T00:32:06.812Z,81.50
2019-04-21T00:33:08.121Z,81.90
2019-04-21T00:34:04.802Z,82.20
2019-04-21T00:35:14.183Z,82.50
2019-04-21T00:36:22.661Z,82.40
2019-04-21T00:37:41.205Z,82.40
2019-04-21T00:38:59.142Z,82.10
2019-04-21T00:40:02.303Z,82.10
2019-04-21T00:41:01.743Z,82.10
2019-04-21T00:42:05.148Z,82.20
2019-04-21T00:43:13.571Z,82.10
2019-04-21T00:44:12.605Z,82.10
2019-04-21T00:45:20.793Z,82.00
2019-04-21T00:46:26.379Z,81.90
2019-04-21T00:47:34.076Z,81.80
2019-04-21T00:48:41.160Z,82.00
2019-04-21T00:49:52.708Z,81.40
2019-04-21T00:51:15.061Z,82.10
2019-04-21T00:54:02.744Z,82.10
2019-04-21T00:55:14.220Z,82.20
2019-04-21T00:56:13.197Z,82.40
2019-04-21T00:57:25.207Z,82.50
2019-04-21T00:58:30.404Z,82.70
2019-04-21T00:59:34.958Z,83.70
2019-04-21T01:00:42.241Z,83.00
2019-04-21T01:01:49.391Z,83.10
2019-04-21T01:02:57.991Z,83.20
2019-04-21T01:04:15.339Z,83.20
2019-04-21T01:05:26.970Z,83.20
2019-04-21T01:06:28.703Z,83.80
2019-04-21T01:07:36.077Z,85.00
2019-04-21T01:08:42.879Z,85.20
2019-04-21T01:09:42.306Z,85.30
2019-04-21T01:10:49.243Z,85.40
2019-04-21T01:12:05.140Z,85.50
2019-04-21T01:13:10.002Z,85.60
2019-04-21T01:14:20.070Z,85.70
2019-04-21T01:16:34.575Z,86.00
2019-04-21T01:17:35.678Z,86.10
2019-04-21T01:18:38.155Z,86.30
2019-04-21T01:19:47.041Z,86.50
2019-04-21T01:20:32.091Z,86.80
2019-04-21T01:21:36.461Z,86.70
2019-04-21T01:22:42.300Z,86.80
2019-04-21T01:23:46.688Z,87.00
2019-04-21T01:25:03.251Z,87.60
2019-04-21T01:26:13.714Z,87.20
2019-04-21T01:27:41.762Z,87.30
2019-04-21T01:29:05.407Z,87.20
2019-04-21T01:36:41.542Z,88.20
2019-04-21T01:43:03.689Z,88.90
2019-04-21T01:46:11.215Z,89.20
2019-04-21T01:47:31.373Z,89.10
2019-04-21T01:54:25.155Z,90.10
2019-04-21T01:56:08.093Z,90.50
2019-04-21T01:57:47.126Z,90.20
2019-04-21T01:59:03.444Z,90.30
2019-04-21T02:00:56.815Z,90.40
2019-04-21T02:02:24.217Z,90.50
2019-04-21T02:05:39.254Z,90.60
2019-04-21T02:07:01.004Z,90.50
2019-04-21T02:08:23.188Z,90.60
2019-04-21T02:11:32.794Z,90.90
2019-04-21T02:17:26.467Z,91.10
2019-04-21T02:22:10.782Z,91.10
2019-04-21T02:25:08.600Z,91.30
2019-04-21T02:26:32.419Z,91.30
2019-04-21T02:27:57.588Z,91.60
2019-04-21T02:34:47.097Z,92.10
2019-04-21T02:40:33.570Z,92.40
2019-04-21T02:49:37.709Z,93.20
2019-04-21T02:50:53.502Z,93.50
2019-04-21T02:54:28.586Z,93.70
2019-04-21T02:55:11.571Z,93.80
2019-04-21T02:56:34.446Z,94.00
2019-04-21T02:57:49.423Z,94.30
2019-04-21T03:01:07.018Z,94.50
2019-04-21T03:06:00.370Z,95.20
2019-04-21T03:07:34.776Z,95.40
2019-04-21T03:10:26.694Z,95.40
2019-04-21T03:11:17.322Z,95.60
2019-04-21T03:12:38.524Z,95.60
2019-04-21T03:14:08.951Z,95.70
2019-04-21T03:15:23.538Z,95.90
2019-04-21T03:16:47.088Z,96.10
2019-04-21T03:17:57.517Z,96.10
2019-04-21T03:19:17.624Z,96.20
2019-04-21T03:20:35.331Z,96.20
2019-04-21T03:21:38.872Z,96.30
2019-04-21T03:27:54.685Z,97.00
2019-04-21T03:36:43.832Z,97.80
2019-04-21T03:37:49.731Z,98.00
2019-04-21T03:40:32.933Z,98.20
2019-04-21T03:48:53.412Z,99.10
2019-04-21T03:59:07.399Z,99.90
2019-04-21T04:02:34.398Z,99.90
2019-04-21T04:04:11.005Z,99.90
2019-04-21T04:07:44.036Z,99.90
2019-04-21T04:10:43.013Z,99.90
2019-04-21T04:11:50.537Z,99.90
2019-04-21T04:13:07.285Z,99.90
2019-04-21T04:15:49.048Z,99.90
2019-04-21T04:18:36.062Z,99.90
2019-04-21T04:19:40.332Z,99.90
2019-04-21T04:21:04.461Z,99.90
2019-04-21T04:22:27.070Z,99.90
2019-04-21T04:23:41.523Z,99.90
2019-04-21T04:29:03.926Z,99.90
2019-04-21T04:30:07.574Z,99.90
2019-04-21T04:32:34.686Z,99.90
2019-04-21T04:35:25.931Z,99.90
2019-04-21T04:39:45.983Z,99.90
2019-04-21T04:44:42.272Z,99.90
2019-04-21T04:48:24.194Z,99.90
2019-04-21T04:50:53.145Z,99.90
2019-04-21T04:52:19.269Z,99.90
2019-04-21T04:56:07.683Z,99.90
2019-04-21T04:57:22.227Z,99.90
2019-04-21T04:59:18.635Z,99.90
2019-04-21T05:00:01.744Z,99.90
2019-04-21T05:01:23.189Z,99.90
2019-04-21T05:02:35.574Z,98.90
2019-04-21T05:03:49.255Z,97.50
2019-04-21T05:05:15.683Z,96.20
2019-04-21T05:09:15.337Z,93.00
2019-04-21T05:10:22.691Z,91.80
2019-04-21T05:11:46.389Z,91.20
2019-04-21T05:12:51.227Z,90.20
2019-04-21T05:15:42.127Z,86.90
2019-04-21T05:18:05.496Z,83.30
2019-04-21T05:20:41.601Z,81.30
2019-04-21T05:21:56.481Z,79.60
2019-04-21T05:23:14.366Z,78.10
2019-04-21T05:24:24.010Z,77.00
2019-04-21T05:25:41.542Z,76.20
2019-04-21T05:26:59.444Z,75.00
2019-04-21T05:28:11.545Z,73.30
2019-04-21T05:29:49.244Z,71.70
2019-04-21T05:31:27.531Z,70.20
2019-04-21T05:32:59.962Z,69.70
2019-04-21T05:34:18.959Z,68.40
2019-04-21T05:35:56.153Z,66.20
2019-04-21T05:37:33.260Z,65.80
2019-04-21T05:39:07.512Z,64.60
2019-04-21T05:40:24.899Z,62.50
2019-04-21T05:41:38.597Z,62.20
2019-04-21T05:43:03.329Z,61.40
2019-04-21T05:44:32.671Z,60.60
2019-04-21T05:45:40.976Z,59.60
2019-04-21T05:48:52.124Z,59.60
2019-04-21T05:50:11.546Z,58.80
2019-04-21T05:51:25.775Z,57.80
2019-04-21T05:52:50.390Z,57.70
2019-04-21T05:54:22.924Z,57.60
2019-04-21T05:55:42.686Z,55.70
2019-04-21T05:56:49.843Z,55.90
2019-04-21T05:58:09.715Z,55.70
2019-04-21T05:59:21.455Z,55.50
2019-04-21T06:01:02.044Z,55.70
2019-04-21T06:02:16.584Z,55.50
2019-04-21T06:03:24.002Z,55.20
2019-04-21T06:05:02.646Z,55.00
2019-04-21T06:06:00.341Z,55.30
2019-04-21T06:07:21.540Z,54.90
2019-04-21T06:08:31.431Z,54.80
2019-04-21T06:11:10.427Z,55.00
2019-04-21T06:12:29.783Z,54.50
2019-04-21T06:13:48.447Z,54.40
2019-04-21T06:15:01.049Z,54.30
2019-04-21T06:16:25.181Z,53.60
2019-04-21T06:21:57.207Z,51.10
2019-04-21T06:23:21.333Z,50.00
2019-04-21T06:24:50.990Z,49.20
2019-04-21T06:27:16.277Z,49.50
2019-04-21T06:28:38.077Z,49.60
2019-04-21T06:29:50.195Z,49.50
2019-04-21T06:31:14.590Z,48.70
2019-04-21T06:32:46.851Z,48.50
2019-04-21T06:33:44.922Z,47.80
2019-04-21T06:35:30.864Z,47.40
2019-04-21T06:37:56.550Z,46.60
2019-04-21T06:39:18.183Z,46.00
2019-04-21T06:40:35.774Z,45.80
2019-04-21T06:41:46.207Z,46.00
2019-04-21T06:43:17.956Z,45.80
2019-04-21T06:44:33.598Z,46.20
2019-04-21T06:45:51.104Z,46.50
2019-04-21T06:47:06.346Z,46.20
2019-04-21T06:48:24.939Z,45.90
2019-04-21T06:49:36.941Z,46.00
2019-04-21T06:51:04.968Z,45.80
2019-04-21T06:52:29.958Z,45.80
2019-04-21T06:53:38.065Z,45.40
2019-04-21T06:54:56.085Z,45.70
2019-04-21T06:56:15.644Z,46.00
2019-04-21T06:57:29.499Z,45.20
2019-04-21T06:58:43.801Z,45.30
2019-04-21T07:00:04.341Z,44.70
2019-04-21T07:01:26.468Z,44.70
2019-04-21T07:04:08.058Z,44.90
2019-04-21T07:05:13.254Z,44.60
2019-04-21T07:06:38.657Z,44.20
2019-04-21T07:07:57.683Z,44.10
2019-04-21T07:09:15.866Z,44.10
2019-04-21T07:10:30.492Z,43.90
2019-04-21T07:11:36.743Z,44.00
2019-04-21T07:13:00.487Z,43.80
2019-04-21T07:15:37.044Z,44.20
2019-04-21T07:16:59.653Z,44.40
2019-04-21T07:18:10.950Z,45.30
2019-04-21T07:19:35.994Z,44.80
2019-04-21T07:20:50.486Z,44.90
2019-04-21T07:22:15.901Z,45.00
2019-04-21T07:23:25.286Z,44.60
2019-04-21T07:24:46.262Z,44.10
2019-04-21T07:26:05.825Z,44.30
2019-04-21T07:27:27.271Z,44.00
2019-04-21T07:28:25.393Z,43.10
2019-04-21T07:29:34.459Z,43.00
2019-04-21T07:30:38.019Z,43.90
2019-04-21T07:31:47.365Z,43.80
2019-04-21T07:32:58.021Z,43.60
2019-04-21T07:33:57.605Z,43.90
2019-04-21T07:35:03.923Z,43.80
2019-04-21T07:36:11.406Z,44.10
2019-04-21T07:37:12.203Z,44.20
2019-04-21T07:38:19.455Z,44.70
2019-04-21T07:39:27.070Z,45.40
2019-04-21T07:40:28.625Z,45.40
2019-04-21T07:41:40.988Z,45.40
2019-04-21T07:42:46.965Z,45.60
2019-04-21T07:43:55.289Z,46.00
2019-04-21T07:45:00.674Z,45.10
2019-04-21T07:46:07.807Z,45.20
2019-04-21T07:47:23.518Z,44.90
2019-04-21T07:48:37.719Z,44.70
2019-04-21T07:51:20.707Z,44.00
2019-04-21T07:52:33.571Z,45.30
2019-04-21T07:53:40.666Z,44.00
2019-04-21T07:54:55.485Z,44.20
2019-04-21T07:56:37.121Z,44.70
2019-04-21T07:57:56.179Z,45.70
2019-04-21T07:59:03.836Z,46.00
2019-04-21T08:00:25.102Z,45.80
2019-04-21T08:01:18.421Z,46.30
2019-04-21T08:02:28.158Z,46.20
2019-04-21T08:03:33.651Z,46.50
2019-04-21T08:04:54.427Z,46.60
2019-04-21T08:05:45.808Z,47.30
2019-04-21T08:06:52.071Z,47.00
2019-04-21T08:08:59.402Z,46.60
2019-04-21T08:10:06.339Z,46.80
2019-04-21T08:11:16.695Z,46.80
2019-04-21T08:12:20.024Z,46.60
2019-04-21T08:13:34.530Z,46.80
2019-04-21T08:14:35.666Z,47.10
2019-04-21T08:15:44.234Z,47.00
2019-04-21T08:16:54.016Z,46.90
2019-04-21T08:17:58.192Z,46.20
2019-04-21T08:19:11.429Z,46.20
2019-04-21T08:20:07.438Z,45.90
2019-04-21T08:21:11.217Z,46.10
2019-04-21T08:22:43.180Z,46.10
2019-04-21T08:23:25.400Z,46.40
2019-04-21T08:24:34.741Z,46.70
2019-04-21T08:25:46.097Z,46.90
2019-04-21T08:26:46.955Z,46.50
2019-04-21T08:29:07.792Z,46.50
2019-04-21T08:30:09.556Z,46.40
2019-04-21T08:31:10.302Z,46.10
2019-04-21T08:32:19.959Z,46.00
2019-04-21T08:33:37.186Z,45.30
2019-04-21T08:35:55.350Z,45.00
2019-04-21T08:36:40.495Z,45.30
2019-04-21T08:37:42.983Z,45.40
2019-04-21T08:38:53.928Z,45.40
2019-04-21T08:40:09.409Z,45.60
2019-04-21T08:41:08.150Z,45.20
2019-04-21T08:42:10.380Z,44.70
2019-04-21T08:43:27.790Z,44.50
2019-04-21T08:44:33.832Z,44.60
2019-04-21T08:45:36.109Z,44.90
2019-04-21T08:46:40.508Z,44.00
2019-04-21T08:47:47.702Z,44.10
2019-04-21T08:48:55.423Z,44.00
2019-04-21T08:50:00.426Z,43.90
2019-04-21T08:51:20.917Z,43.30
2019-04-21T08:52:25.974Z,43.20
2019-04-21T08:53:19.608Z,43.20
2019-04-21T08:55:58.003Z,43.30
2019-04-21T08:57:15.280Z,43.70
2019-04-21T08:58:41.567Z,44.00
2019-04-21T08:59:55.059Z,44.20
2019-04-21T09:01:33.036Z,44.40
2019-04-21T09:02:40.458Z,44.40
2019-04-21T09:03:58.781Z,43.60
2019-04-21T09:05:04.585Z,43.40
2019-04-21T09:06:13.758Z,43.80
2019-04-21T09:08:26.947Z,44.50
2019-04-21T09:09:35.017Z,44.40
2019-04-21T09:10:34.796Z,44.00
2019-04-21T09:11:42.198Z,44.00
2019-04-21T09:12:46.770Z,44.10
2019-04-21T09:13:54.399Z,44.20
2019-04-21T09:15:00.833Z,43.80
2019-04-21T09:16:06.321Z,42.60
2019-04-21T09:17:10.761Z,42.40
2019-04-21T09:18:18.573Z,43.10
2019-04-21T09:19:40.887Z,43.40
2019-04-21T09:20:40.211Z,43.20
2019-04-21T09:21:43.694Z,42.70
2019-04-21T09:22:47.782Z,42.60
2019-04-21T09:23:54.308Z,42.80
2019-04-21T09:24:57.704Z,42.00
2019-04-21T09:26:05.211Z,42.50
2019-04-21T09:27:08.537Z,42.80
2019-04-21T09:28:11.163Z,43.20
2019-04-21T09:29:16.057Z,43.20
2019-04-21T09:30:13.032Z,43.40
2019-04-21T09:31:23.933Z,42.90
2019-04-21T09:32:27.138Z,43.50
2019-04-21T09:33:36.453Z,43.80
2019-04-21T09:35:50.155Z,44.60
2019-04-21T09:36:51.587Z,44.00
2019-04-21T09:39:07.787Z,44.50
2019-04-21T09:40:06.778Z,43.70
2019-04-21T09:41:16.107Z,43.70
2019-04-21T09:42:19.714Z,43.10
2019-04-21T09:43:30.786Z,43.40
2019-04-21T09:44:36.068Z,43.20
2019-04-21T09:45:37.623Z,44.00
2019-04-21T09:46:49.852Z,44.90
2019-04-21T09:47:57.220Z,44.80
2019-04-21T09:49:00.891Z,45.70
2019-04-21T09:50:02.789Z,46.40
2019-04-21T09:51:06.860Z,45.40
2019-04-21T09:52:18.844Z,45.80
2019-04-21T09:53:26.914Z,46.20
2019-04-21T09:54:29.868Z,46.10
2019-04-21T09:55:41.557Z,46.60
2019-04-21T09:56:44.148Z,46.50
2019-04-21T09:58:53.241Z,47.00
2019-04-21T10:00:00.906Z,46.80
2019-04-21T10:01:12.249Z,46.50
2019-04-21T10:02:14.254Z,46.40
2019-04-21T10:03:16.289Z,46.40
2019-04-21T10:04:20.825Z,46.60
2019-04-21T10:05:25.234Z,45.20
2019-04-21T10:06:30.663Z,44.30
2019-04-21T10:07:41.670Z,44.60
2019-04-21T10:08:42.889Z,43.70
2019-04-21T10:09:47.910Z,43.80
2019-04-21T10:10:54.704Z,44.90
2019-04-21T10:12:00.732Z,45.90
2019-04-21T10:13:05.284Z,42.30
2019-04-21T10:14:09.802Z,43.00
2019-04-21T10:15:14.547Z,44.00
2019-04-21T10:16:45.062Z,44.40
2019-04-21T10:17:56.122Z,45.40
2019-04-21T10:19:00.555Z,45.40
2019-04-21T10:20:07.176Z,44.00
2019-04-21T10:21:11.560Z,43.20
2019-04-21T10:22:17.035Z,42.70
2019-04-21T10:23:21.636Z,43.10
2019-04-21T10:24:26.394Z,43.50
2019-04-21T10:25:30.918Z,44.30
2019-04-21T10:26:35.647Z,43.30
2019-04-21T10:27:41.252Z,43.00
2019-04-21T10:28:46.879Z,44.10
2019-04-21T10:29:52.264Z,44.50
2019-04-21T10:30:58.550Z,44.20
2019-04-21T10:32:03.595Z,44.60
2019-04-21T10:33:08.423Z,45.00
2019-04-21T10:34:13.509Z,45.20
2019-04-21T10:35:21.174Z,45.00
2019-04-21T10:36:24.936Z,45.30
2019-04-21T10:37:44.143Z,45.40
2019-04-21T10:38:42.634Z,46.10
2019-04-21T10:39:41.975Z,46.80
2019-04-21T10:40:47.558Z,47.30
2019-04-21T10:41:53.159Z,47.50
2019-04-21T10:42:58.357Z,47.60
2019-04-21T10:44:03.143Z,47.30
2019-04-21T10:45:08.325Z,47.30
2019-04-21T10:46:12.931Z,47.60
2019-04-21T10:47:18.655Z,47.80
2019-04-21T10:48:23.096Z,47.60
2019-04-21T10:49:28.684Z,47.80
2019-04-21T10:50:34.935Z,48.30
2019-04-21T10:51:39.385Z,48.40
2019-04-21T10:53:02.901Z,48.30
2019-04-21T10:54:08.321Z,48.70
2019-04-21T10:55:31.809Z,49.30
2019-04-21T10:56:27.232Z,49.20
2019-04-21T10:57:28.437Z,48.80
2019-04-21T10:58:36.301Z,48.50
2019-04-21T10:59:46.209Z,48.90
2019-04-21T11:00:48.443Z,48.80
2019-04-21T11:01:53.095Z,48.70
2019-04-21T11:03:17.155Z,49.00
2019-04-21T11:04:32.353Z,48.60
2019-04-21T11:05:34.517Z,48.00
2019-04-21T11:06:39.053Z,48.30
2019-04-21T11:08:02.459Z,48.80
2019-04-21T11:08:57.913Z,49.40
2019-04-21T11:10:02.500Z,49.20
2019-04-21T11:11:08.005Z,48.50
2019-04-21T11:12:13.573Z,48.60
2019-04-21T11:13:18.839Z,47.80
2019-04-21T11:14:23.333Z,48.20
2019-04-21T11:15:27.793Z,47.70
2019-04-21T11:16:33.222Z,47.60
2019-04-21T11:17:40.239Z,47.60
2019-04-21T11:18:44.134Z,47.70
2019-04-21T11:19:48.917Z,47.40
2019-04-21T11:20:53.346Z,46.60
2019-04-21T11:22:01.021Z,46.60
2019-04-21T11:23:05.968Z,47.10
2019-04-21T11:24:10.535Z,46.70
2019-04-21T11:25:15.837Z,46.00
2019-04-21T11:26:20.317Z,46.20
2019-04-21T11:27:24.740Z,46.60
2019-04-21T11:28:31.185Z,44.60
2019-04-21T11:29:37.066Z,45.20
2019-04-21T11:30:42.437Z,45.80
2019-04-21T11:31:49.344Z,46.00
2019-04-21T11:32:55.170Z,45.80
2019-04-21T11:34:00.785Z,45.60
2019-04-21T11:35:07.268Z,46.30
2019-04-21T11:36:13.216Z,45.70
2019-04-21T11:37:19.927Z,46.30
2019-04-21T11:38:33.499Z,46.60
2019-04-21T11:39:46.116Z,46.20
2019-04-21T11:40:43.371Z,46.00
2019-04-21T11:41:48.013Z,45.90
2019-04-21T11:42:53.620Z,46.10
2019-04-21T11:43:59.208Z,46.00
2019-04-21T11:45:06.308Z,46.60
2019-04-21T11:46:10.921Z,46.60
2019-04-21T11:47:32.384Z,46.30
2019-04-21T11:48:36.866Z,46.50
2019-04-21T11:49:41.513Z,45.00
2019-04-21T11:50:46.694Z,43.10
2019-04-21T11:51:53.211Z,43.80
2019-04-21T11:52:59.061Z,43.40
2019-04-21T11:54:04.607Z,43.00
2019-04-21T11:55:09.215Z,43.00
2019-04-21T11:56:14.699Z,44.00
2019-04-21T11:57:24.645Z,44.20
2019-04-21T11:58:26.220Z,44.20
2019-04-21T11:59:30.793Z,45.10
2019-04-21T12:00:35.851Z,45.70
2019-04-21T12:01:41.435Z,44.70
2019-04-21T12:02:45.926Z,44.50
2019-04-21T12:03:51.624Z,44.50
2019-04-21T12:04:57.228Z,43.80
2019-04-21T12:06:01.812Z,43.20
2019-04-21T12:07:07.184Z,42.90
2019-04-21T12:08:22.951Z,41.80
2019-04-21T12:09:18.909Z,42.60
2019-04-21T12:10:23.786Z,41.50
2019-04-21T12:11:29.388Z,41.90
2019-04-21T12:12:35.014Z,41.80
2019-04-21T12:13:40.341Z,40.80
2019-04-21T12:14:45.925Z,40.20
2019-04-21T12:15:50.453Z,40.80
2019-04-21T12:16:57.195Z,41.00
2019-04-21T12:18:03.832Z,40.20
2019-04-21T12:19:09.202Z,39.90
2019-04-21T12:20:14.787Z,39.80
2019-04-21T12:21:21.146Z,40.20
2019-04-21T12:22:29.956Z,39.90
2019-04-21T12:23:32.426Z,40.10
2019-04-21T12:24:38.129Z,40.30
2019-04-21T12:26:49.936Z,41.80
2019-04-21T12:27:54.389Z,41.80
2019-04-21T12:28:59.686Z,42.10
2019-04-21T12:30:05.865Z,42.40
2019-04-21T12:31:45.479Z,42.60
2019-04-21T12:32:58.078Z,43.70
2019-04-21T12:34:04.113Z,44.90
2019-04-21T12:35:10.048Z,45.20
2019-04-21T12:36:15.758Z,45.30
2019-04-21T12:37:20.361Z,45.10
2019-04-21T12:38:36.917Z,45.60
2019-04-21T12:39:30.969Z,45.40
2019-04-21T12:40:36.681Z,45.50
2019-04-21T12:41:42.502Z,45.80
2019-04-21T12:42:48.317Z,45.40
2019-04-21T12:43:53.028Z,45.60
2019-04-21T12:44:57.421Z,46.20
2019-04-21T12:46:02.235Z,45.10
2019-04-21T12:47:07.958Z,44.30
2019-04-21T12:48:13.844Z,43.40
2019-04-21T12:49:18.372Z,43.00
2019-04-21T12:50:23.572Z,41.70
2019-04-21T12:51:30.217Z,41.50
2019-04-21T12:52:35.701Z,41.00
2019-04-21T12:53:41.450Z,40.50
2019-04-21T12:54:45.941Z,42.00
2019-04-21T12:55:51.659Z,43.80
2019-04-21T12:56:56.319Z,43.30
2019-04-21T12:58:01.398Z,42.90
2019-04-21T12:59:05.931Z,43.30
2019-04-21T13:00:13.228Z,43.70
2019-04-21T13:01:18.838Z,43.40
2019-04-21T13:02:25.413Z,43.90
2019-04-21T13:03:34.292Z,44.20
2019-04-21T13:04:40.114Z,43.40
2019-04-21T13:05:47.446Z,44.10
2019-04-21T13:06:52.100Z,43.40
2019-04-21T13:07:59.495Z,42.90
2019-04-21T13:09:08.970Z,43.40
2019-04-21T13:10:12.714Z,42.80
2019-04-21T13:11:17.265Z,43.00
2019-04-21T13:12:22.867Z,42.80
2019-04-21T13:13:30.028Z,42.90
2019-04-21T13:14:35.775Z,43.10
2019-04-21T13:15:40.525Z,43.30
2019-04-21T13:16:45.652Z,43.10
2019-04-21T13:17:50.322Z,41.60
2019-04-21T13:18:55.369Z,40.50
2019-04-21T13:20:01.106Z,40.30
2019-04-21T13:21:07.144Z,41.10
2019-04-21T13:22:12.235Z,41.30
2019-04-21T13:23:16.837Z,41.40
2019-04-21T13:24:22.003Z,41.00
2019-04-21T13:25:27.714Z,41.20
2019-04-21T13:26:41.882Z,40.50
2019-04-21T13:27:38.759Z,40.50
2019-04-21T13:29:02.701Z,41.40
2019-04-21T13:30:28.421Z,41.20
2019-04-21T13:31:52.602Z,41.80
2019-04-21T13:33:16.155Z,41.40
2019-04-21T13:36:23.353Z,41.90
2019-04-21T13:37:49.321Z,41.90
2019-04-21T13:39:55.278Z,41.20
2019-04-21T13:41:30.833Z,41.10
2019-04-21T13:44:30.934Z,40.00
2019-04-21T13:47:38.738Z,39.00
2019-04-21T13:49:03.554Z,36.70
2019-04-21T13:50:26.999Z,36.80
2019-04-21T13:51:50.434Z,36.80
2019-04-21T13:53:14.681Z,36.20
2019-04-21T13:54:39.870Z,35.00
2019-04-21T13:56:04.718Z,36.30
2019-04-21T13:58:40.126Z,37.60
2019-04-21T13:59:57.172Z,37.80
2019-04-21T14:01:13.872Z,37.90
2019-04-21T14:02:30.867Z,36.00
2019-04-21T14:03:47.584Z,34.80
2019-04-21T14:05:06.737Z,35.90
2019-04-21T14:06:22.538Z,36.50
2019-04-21T14:07:38.973Z,36.60
2019-04-21T14:08:55.177Z,36.60
2019-04-21T14:10:12.751Z,36.30
2019-04-21T14:11:29.587Z,37.00
2019-04-21T14:12:46.720Z,37.50
2019-04-21T14:14:02.742Z,37.20
2019-04-21T14:15:20.116Z,37.20
2019-04-21T14:16:36.452Z,37.30
2019-04-21T14:17:53.105Z,37.50
2019-04-21T14:19:09.728Z,38.00
2019-04-21T14:20:27.053Z,37.40
2019-04-21T14:21:46.413Z,36.50
2019-04-21T14:23:13.255Z,37.10
2019-04-21T14:24:19.510Z,38.40
2019-04-21T14:25:35.635Z,38.60
2019-04-21T14:26:52.223Z,38.40
2019-04-21T14:28:08.367Z,39.70
2019-04-21T14:29:25.710Z,38.40
2019-04-21T14:30:41.778Z,38.10
2019-04-21T14:31:58.083Z,38.00
2019-04-21T14:33:14.211Z,38.00
2019-04-21T14:34:30.212Z,38.20
2019-04-21T14:35:47.149Z,38.50
2019-04-21T14:37:04.457Z,39.00
2019-04-21T14:38:20.616Z,39.10
2019-04-21T14:39:47.920Z,38.90
2019-04-21T14:42:42.831Z,39.40
2019-04-21T14:44:06.897Z,40.20
2019-04-21T14:45:50.517Z,39.80
2019-04-21T14:47:33.375Z,39.10
2019-04-21T14:49:17.353Z,39.60
2019-04-21T14:51:00.010Z,39.30
2019-04-21T14:54:17.280Z,38.90
2019-04-21T14:55:43.563Z,38.60
2019-04-21T15:03:25.780Z,38.80
2019-04-21T15:10:07.038Z,39.10
2019-04-21T15:14:49.876Z,39.70
2019-04-21T15:16:06.908Z,39.00
2019-04-21T15:17:24.925Z,38.80
2019-04-21T15:18:41.302Z,38.70
2019-04-21T15:21:15.332Z,38.20
2019-04-21T15:22:32.285Z,38.30
2019-04-21T15:23:48.436Z,38.60
2019-04-21T15:25:05.862Z,38.70
2019-04-21T15:26:22.122Z,38.70
2019-04-21T15:27:39.028Z,38.10
2019-04-21T15:28:55.036Z,38.00
2019-04-21T15:30:11.070Z,37.50
2019-04-21T15:31:32.035Z,37.30
2019-04-21T15:32:46.416Z,38.00
2019-04-21T15:34:03.252Z,38.30
2019-04-21T15:39:12.104Z,38.80
2019-04-21T15:40:39.878Z,39.00
2019-04-21T15:41:46.474Z,39.20
2019-04-21T15:43:02.490Z,38.60
2019-04-21T15:44:18.654Z,38.20
2019-04-21T15:45:35.134Z,38.20
2019-04-21T15:46:52.097Z,38.30
2019-04-21T15:48:09.868Z,38.60
2019-04-21T15:49:40.517Z,38.70
2019-04-21T15:50:48.093Z,38.90
2019-04-21T15:52:04.276Z,39.50
2019-04-21T15:53:21.647Z,39.60
2019-04-21T15:54:38.686Z,39.80
2019-04-21T15:55:59.223Z,40.00
2019-04-21T15:57:21.765Z,40.30
2019-04-21T16:03:20.780Z,39.90
2019-04-21T16:04:36.877Z,39.10
2019-04-21T16:05:53.692Z,39.40
2019-04-21T16:07:09.665Z,39.80
2019-04-21T16:08:27.101Z,39.60
2019-04-21T16:09:43.975Z,39.10
2019-04-21T16:11:03.965Z,38.80
2019-04-21T16:12:19.940Z,38.90
2019-04-21T16:13:37.220Z,39.00
2019-04-21T16:14:54.497Z,39.00
2019-04-21T16:16:10.607Z,39.30
2019-04-21T16:17:27.583Z,40.30
2019-04-21T16:20:02.040Z,39.40
2019-04-21T16:21:19.739Z,40.10
2019-04-21T16:22:36.836Z,39.80
2019-04-21T16:23:54.097Z,39.80
2019-04-21T16:25:10.743Z,38.80
2019-04-21T16:26:28.685Z,38.50
2019-04-21T16:27:45.482Z,38.70
2019-04-21T16:29:02.768Z,38.40
2019-04-21T16:30:19.713Z,38.80
2019-04-21T16:31:36.372Z,39.50
2019-04-21T16:32:52.306Z,39.90
2019-04-21T16:34:09.298Z,40.00
2019-04-21T16:35:26.660Z,39.70
2019-04-21T16:36:43.509Z,39.70
2019-04-21T16:38:02.431Z,39.40
2019-04-21T16:39:19.702Z,39.90
2019-04-21T16:40:46.305Z,40.50
2019-04-21T16:41:54.155Z,40.90
2019-04-21T16:43:10.153Z,41.00
2019-04-21T16:44:27.346Z,41.20
2019-04-21T16:45:44.439Z,41.40
2019-04-21T16:47:01.399Z,41.20
2019-04-21T16:48:17.447Z,41.20
2019-04-21T16:49:33.725Z,41.50
2019-04-21T16:50:50.054Z,40.70
2019-04-21T16:52:25.894Z,40.90
2019-04-21T16:55:51.169Z,40.40
2019-04-21T16:58:48.493Z,40.90
2019-04-21T17:00:10.724Z,40.60
2019-04-21T17:01:31.278Z,41.10
2019-04-21T17:03:04.284Z,39.90
2019-04-21T17:04:12.661Z,40.20
2019-04-21T17:05:30.040Z,40.20
2019-04-21T17:06:47.043Z,39.80
2019-04-21T17:08:04.149Z,39.70
2019-04-21T17:09:20.821Z,40.10
2019-04-21T17:10:38.226Z,39.70
2019-04-21T17:11:59.959Z,40.70
2019-04-21T17:13:13.951Z,39.40
2019-04-21T17:16:07.820Z,39.20
2019-04-21T17:17:29.295Z,39.50
2019-04-21T17:18:40.541Z,39.40
2019-04-21T17:19:46.974Z,39.60
2019-04-21T17:21:01.650Z,40.10
2019-04-21T17:22:19.484Z,39.50
2019-04-21T17:23:35.865Z,39.70
2019-04-21T17:24:52.660Z,39.70
2019-04-21T17:27:56.788Z,40.10
2019-04-21T17:29:12.622Z,40.20
2019-04-21T17:30:32.496Z,40.10
2019-04-21T17:31:49.846Z,40.50
2019-04-21T17:33:05.750Z,40.70
2019-04-21T17:34:24.948Z,40.80
2019-04-21T17:35:40.741Z,41.00
2019-04-21T17:36:57.250Z,41.10
2019-04-21T17:38:14.080Z,41.30
2019-04-21T17:39:31.106Z,41.30
2019-04-21T17:40:47.672Z,41.20
2019-04-21T17:42:14.145Z,41.60
2019-04-21T17:43:21.786Z,41.50
2019-04-21T17:44:39.274Z,41.70
2019-04-21T17:45:55.651Z,42.10
2019-04-21T17:47:25.605Z,42.40
2019-04-21T17:48:31.119Z,42.90
2019-04-21T17:49:50.811Z,43.90
2019-04-21T17:51:11.904Z,45.30
2019-04-21T17:55:40.609Z,47.60
2019-04-21T17:57:16.277Z,48.10
2019-04-21T17:58:27.877Z,48.40
2019-04-21T18:00:09.757Z,48.80
2019-04-21T18:02:50.212Z,49.40
2019-04-21T18:04:07.299Z,49.80
2019-04-21T18:05:22.902Z,50.20
2019-04-21T18:06:36.688Z,50.60
2019-04-21T18:07:50.481Z,50.70
2019-04-21T18:09:18.297Z,51.20
2019-04-21T18:10:27.613Z,51.40
2019-04-21T18:11:46.839Z,51.60
2019-04-21T18:12:55.356Z,51.90
2019-04-21T18:14:03.654Z,52.20
2019-04-21T18:15:37.073Z,52.20
2019-04-21T18:16:41.777Z,52.40
2019-04-21T18:17:56.574Z,52.70
2019-04-21T18:19:12.978Z,52.90
2019-04-21T18:20:32.238Z,53.20
2019-04-21T18:22:09.025Z,53.40
2019-04-21T18:23:57.348Z,53.60
2019-04-21T18:25:25.263Z,53.80
2019-04-21T18:26:41.769Z,54.20
2019-04-21T18:27:47.571Z,54.50
2019-04-21T18:29:03.628Z,54.70
2019-04-21T18:30:20.234Z,55.00
2019-04-21T18:31:40.666Z,55.80
2019-04-21T18:32:56.997Z,55.30
2019-04-21T18:38:08.019Z,56.20
2019-04-21T18:39:52.500Z,56.40
2019-04-21T18:45:34.328Z,57.30
2019-04-21T18:47:01.297Z,57.60
2019-04-21T18:48:31.546Z,57.70
2019-04-21T18:51:54.255Z,58.10
2019-04-21T18:53:23.884Z,58.40
2019-04-21T18:56:08.293Z,58.90
2019-04-21T18:57:39.323Z,59.20
2019-04-21T19:00:35.142Z,59.60
2019-04-21T19:01:54.473Z,59.90
2019-04-21T19:03:09.957Z,60.10
2019-04-21T19:04:29.185Z,60.50
2019-04-21T19:05:47.861Z,60.90
2019-04-21T19:07:18.111Z,61.20
2019-04-21T19:08:38.784Z,61.50
2019-04-21T19:11:13.500Z,61.70
2019-04-21T19:14:19.660Z,62.10
2019-04-21T19:15:20.293Z,62.30
2019-04-21T19:16:53.981Z,62.50
2019-04-21T19:18:34.041Z,62.70
2019-04-21T19:20:39.349Z,63.10
2019-04-21T19:22:00.150Z,63.50
2019-04-21T19:23:13.860Z,63.60
2019-04-21T19:24:48.915Z,63.80